Time;durP1;ratioP1;P1;durP2;ratioP2;P2;SDS_P1;SDS_P2;PMS_P1;PMS_P2;Temp;Humidity;BMP_temperature;BMP_pressure;BME280_temperature;BME280_humidity;BME280_pressure;Samples;Min_cycle;Max_cycle;Signal;HPM_P1;HPM_P2
2021/09/27 00:01:13;;;;;;;11.75;10.65;;;17.30;99.90;;;;;;6058518;23;20261;-76
2021/09/27 00:03:41;;;;;;;13.95;12.65;;;17.30;99.90;;;;;;6060969;23;20205;-77
2021/09/27 00:06:10;;;;;;;14.02;12.73;;;17.30;99.90;;;;;;6057519;23;20208;-77
2021/09/27 00:08:37;;;;;;;13.60;12.38;;;17.20;99.90;;;;;;6057721;23;20206;-76
2021/09/27 00:11:07;;;;;;;14.13;12.93;;;17.10;99.90;;;;;;6056407;23;20218;-76
2021/09/27 00:13:37;;;;;;;15.00;13.60;;;17.10;99.90;;;;;;6057820;23;20273;-76
2021/09/27 00:16:07;;;;;;;13.88;12.68;;;17.00;99.90;;;;;;6057617;23;20210;-76
2021/09/27 00:18:34;;;;;;;14.90;13.60;;;17.00;99.90;;;;;;6056689;23;20280;-76
2021/09/27 00:21:05;;;;;;;14.93;13.57;;;17.00;99.90;;;;;;6056261;23;20269;-76
2021/09/27 00:23:34;;;;;;;15.25;13.75;;;17.00;99.90;;;;;;6058005;23;20214;-75
2021/09/27 00:26:02;;;;;;;15.07;13.55;;;17.00;99.90;;;;;;6056750;23;20626;-77
2021/09/27 00:28:29;;;;;;;16.15;14.68;;;16.90;99.90;;;;;;6057936;23;20214;-76
2021/09/27 00:30:57;;;;;;;17.27;15.52;;;16.90;99.90;;;;;;6042482;23;20214;-76
2021/09/27 00:33:27;;;;;;;17.33;15.63;;;16.90;99.90;;;;;;6056799;23;20262;-75
2021/09/27 00:35:56;;;;;;;20.55;18.65;;;16.80;99.90;;;;;;6057856;23;20277;-76
2021/09/27 00:38:24;;;;;;;21.77;19.65;;;16.80;99.90;;;;;;6056894;23;20214;-77
2021/09/27 00:40:54;;;;;;;23.40;21.17;;;16.80;99.90;;;;;;6055851;23;20739;-76
2021/09/27 00:43:21;;;;;;;22.98;20.77;;;16.70;99.90;;;;;;6058620;23;20734;-76
2021/09/27 00:45:54;;;;;;;21.33;19.25;;;16.70;99.90;;;;;;6057849;23;20356;-76
2021/09/27 00:48:22;;;;;;;20.00;18.00;;;16.70;99.90;;;;;;6057888;23;20214;-77
2021/09/27 00:50:54;;;;;;;18.63;16.92;;;16.70;99.90;;;;;;6057216;23;20214;-76
2021/09/27 00:53:25;;;;;;;17.38;15.75;;;16.70;99.90;;;;;;6056875;23;20218;-77
2021/09/27 00:55:54;;;;;;;17.55;15.82;;;16.80;99.90;;;;;;6057397;23;20257;-75
2021/09/27 00:58:22;;;;;;;17.80;16.13;;;16.80;99.90;;;;;;6057984;23;20687;-76
2021/09/27 01:03:17;;;;;;;16.58;15.07;;;16.80;99.90;;;;;;6075519;23;20205;-76
2021/09/27 01:05:50;;;;;;;18.40;16.70;;;16.80;99.90;;;;;;6082984;23;20209;-76
2021/09/27 01:08:38;;;;;;;19.13;17.38;;;16.80;99.90;;;;;;6085941;23;20734;-76
2021/09/27 01:11:24;;;;;;;18.00;16.35;;;16.80;99.90;;;;;;6086385;23;20201;-76
2021/09/27 01:14:18;;;;;;;16.77;15.25;;;16.80;99.90;;;;;;6086952;23;20272;-75
2021/09/27 01:16:57;;;;;;;18.88;16.98;;;16.80;99.90;;;;;;6086255;23;20212;-76
2021/09/27 01:20:11;;;;;;;18.10;16.30;;;16.80;99.90;;;;;;6087156;23;20201;-76
2021/09/27 01:22:58;;;;;;;18.13;16.33;;;16.80;99.90;;;;;;6087063;23;20706;-76
2021/09/27 01:26:03;;;;;;;16.30;14.80;;;16.80;99.90;;;;;;6087341;23;20209;-74
2021/09/27 01:29:00;;;;;;;15.82;14.43;;;16.80;99.90;;;;;;6058018;23;20643;-75
2021/09/27 01:31:53;;;;;;;13.80;12.60;;;16.90;99.90;;;;;;6048759;23;20272;-75
2021/09/27 01:34:28;;;;;;;16.15;14.57;;;16.90;99.90;;;;;;6086596;23;20287;-73
2021/09/27 01:37:04;;;;;;;15.07;13.68;;;16.90;99.90;;;;;;6087403;23;20208;-77
2021/09/27 01:39:40;;;;;;;13.73;12.50;;;16.90;99.90;;;;;;6084969;23;20639;-76
2021/09/27 01:42:12;;;;;;;15.65;14.23;;;17.00;99.90;;;;;;6083667;23;20204;-76
2021/09/27 01:44:45;;;;;;;15.27;13.88;;;17.00;99.90;;;;;;6087376;23;20216;-75
2021/09/27 01:47:20;;;;;;;15.25;13.85;;;17.00;99.90;;;;;;6051283;23;20514;-76
2021/09/27 01:49:55;;;;;;;16.20;14.73;;;17.00;99.90;;;;;;6104211;23;20265;-75
2021/09/27 01:52:27;;;;;;;17.48;15.77;;;17.00;99.90;;;;;;6085428;23;20678;-74
2021/09/27 01:55:01;;;;;;;17.75;16.05;;;16.90;99.90;;;;;;6086480;23;20206;-75
2021/09/27 01:57:35;;;;;;;17.60;15.93;;;16.90;99.90;;;;;;6085107;23;20208;-75
2021/09/27 02:00:06;;;;;;;18.38;16.63;;;16.90;99.90;;;;;;6086730;23;20201;-75
2021/09/27 02:02:41;;;;;;;20.52;18.42;;;16.80;99.90;;;;;;6084856;23;20269;-75
2021/09/27 02:05:12;;;;;;;17.13;15.52;;;16.80;99.90;;;;;;6086746;23;20204;-75
2021/09/27 02:07:45;;;;;;;16.13;14.63;;;16.80;99.90;;;;;;6086210;23;20678;-75
2021/09/27 02:10:16;;;;;;;14.90;13.40;;;16.80;99.90;;;;;;6085762;23;20220;-76
2021/09/27 02:12:49;;;;;;;14.02;12.82;;;16.80;99.90;;;;;;6086472;23;20213;-72
2021/09/27 02:15:21;;;;;;;13.52;12.18;;;16.80;99.90;;;;;;6085878;23;20205;-75
2021/09/27 02:17:57;;;;;;;11.55;10.55;;;16.90;99.90;;;;;;6084617;23;20264;-76
2021/09/27 02:20:30;;;;;;;9.52;8.73;;;16.80;99.90;;;;;;6085167;23;20212;-76
2021/09/27 02:23:05;;;;;;;9.05;8.32;;;16.80;99.90;;;;;;6085858;23;20201;-75
2021/09/27 02:25:35;;;;;;;8.55;7.85;;;16.80;99.90;;;;;;6083908;23;20216;-76
2021/09/27 02:28:05;;;;;;;8.60;7.80;;;16.80;99.90;;;;;;6089044;23;20260;-76
2021/09/27 02:30:40;;;;;;;8.13;7.43;;;16.80;99.90;;;;;;6086626;23;20268;-75
2021/09/27 02:33:18;;;;;;;7.90;7.30;;;16.90;99.90;;;;;;6085328;23;20276;-76
2021/09/27 02:35:51;;;;;;;8.35;7.65;;;16.90;99.90;;;;;;6086318;23;20209;-74
2021/09/27 02:38:24;;;;;;;8.60;7.90;;;16.90;99.90;;;;;;6084256;23;20214;-75
2021/09/27 02:40:57;;;;;;;9.98;9.02;;;16.90;99.90;;;;;;6084770;23;20216;-75
2021/09/27 02:43:24;;;;;;;8.80;8.00;;;16.90;99.90;;;;;;6085197;23;21008;-76
2021/09/27 02:45:52;;;;;;;9.35;8.48;;;16.90;99.90;;;;;;6086441;23;20205;-75
2021/09/27 02:48:32;;;;;;;7.75;7.15;;;16.90;99.90;;;;;;6084257;23;20232;-74
2021/09/27 02:50:59;;;;;;;9.13;8.18;;;16.90;99.90;;;;;;6084451;23;20201;-75
2021/09/27 02:53:26;;;;;;;7.97;7.30;;;16.90;99.90;;;;;;6085587;23;20201;-76
2021/09/27 02:56:09;;;;;;;8.38;7.68;;;16.90;99.90;;;;;;6085451;23;20235;-74
2021/09/27 02:58:43;;;;;;;9.07;8.27;;;16.90;99.90;;;;;;6085067;23;20213;-75
2021/09/27 03:01:18;;;;;;;9.95;8.95;;;16.80;99.90;;;;;;6084250;23;20741;-77
2021/09/27 03:04:01;;;;;;;9.38;8.48;;;16.80;99.90;;;;;;6085756;23;20263;-76
2021/09/27 03:06:39;;;;;;;8.52;7.72;;;16.80;99.90;;;;;;6087544;23;20256;-75
2021/09/27 03:09:11;;;;;;;7.07;6.47;;;16.80;99.90;;;;;;6084073;23;20255;-76
2021/09/27 03:12:11;;;;;;;7.07;6.43;;;16.80;99.90;;;;;;6085131;23;20213;-76
2021/09/27 03:15:19;;;;;;;5.88;5.38;;;16.70;99.90;;;;;;6067543;23;20269;-79
2021/09/27 03:17:54;;;;;;;5.78;5.20;;;16.70;99.90;;;;;;6027732;23;20225;-76
2021/09/27 03:20:37;;;;;;;6.72;6.22;;;16.70;99.90;;;;;;6087292;23;20268;-75
2021/09/27 03:23:07;;;;;;;6.90;6.28;;;16.70;99.90;;;;;;6087286;23;20197;-78
2021/09/27 03:25:48;;;;;;;7.88;7.18;;;16.60;99.90;;;;;;6086359;23;20217;-76
2021/09/27 03:28:26;;;;;;;7.35;6.75;;;16.60;99.90;;;;;;6086103;23;20201;-75
2021/09/27 03:31:06;;;;;;;7.57;6.88;;;16.60;99.90;;;;;;6086663;23;20197;-74
2021/09/27 03:33:46;;;;;;;7.07;6.47;;;16.60;99.90;;;;;;6084177;23;20210;-78
2021/09/27 03:36:32;;;;;;;7.35;6.65;;;16.60;99.90;;;;;;6085066;23;20200;-75
2021/09/27 03:39:07;;;;;;;8.27;7.55;;;16.60;99.90;;;;;;6085772;23;20280;-75
2021/09/27 03:41:41;;;;;;;7.60;7.00;;;16.60;99.90;;;;;;6084284;23;20209;-75
2021/09/27 03:44:20;;;;;;;7.00;6.40;;;16.60;99.90;;;;;;6084915;23;20201;-76
2021/09/27 03:47:02;;;;;;;7.03;6.43;;;16.60;99.90;;;;;;6087691;23;20213;-77
2021/09/27 03:49:35;;;;;;;6.53;5.93;;;16.60;99.90;;;;;;6087120;23;20209;-75
2021/09/27 03:52:07;;;;;;;6.88;6.38;;;16.60;99.90;;;;;;6085670;23;20205;-75
2021/09/27 03:54:41;;;;;;;6.93;6.43;;;16.60;99.90;;;;;;6088174;23;20269;-75
2021/09/27 03:57:12;;;;;;;6.55;6.05;;;16.60;99.90;;;;;;6085408;23;20196;-74
2021/09/27 03:59:43;;;;;;;7.75;7.15;;;16.60;99.90;;;;;;6086262;23;20223;-76
2021/09/27 04:02:15;;;;;;;6.85;6.25;;;16.60;99.90;;;;;;6089056;23;20687;-77
2021/09/27 04:04:58;;;;;;;6.35;5.85;;;16.60;99.90;;;;;;6088319;23;20202;-77
2021/09/27 04:07:35;;;;;;;6.47;5.90;;;16.60;99.90;;;;;;6088925;23;20216;-77
2021/09/27 04:10:20;;;;;;;6.50;5.90;;;16.60;99.90;;;;;;6085624;23;20203;-77
2021/09/27 04:13:12;;;;;;;6.55;5.95;;;16.60;99.90;;;;;;6088723;23;20225;-80
2021/09/27 04:16:02;;;;;;;6.07;5.57;;;16.60;99.90;;;;;;6088288;23;20201;-80
2021/09/27 04:18:38;;;;;;;6.63;6.03;;;16.60;99.90;;;;;;6089737;23;20816;-77
2021/09/27 04:21:14;;;;;;;6.72;6.22;;;16.60;99.90;;;;;;6087085;23;20237;-78
2021/09/27 04:23:59;;;;;;;6.43;5.93;;;16.50;99.90;;;;;;6089609;23;20216;-77
2021/09/27 04:26:41;;;;;;;6.90;6.30;;;16.50;99.90;;;;;;6073931;23;20201;-78
2021/09/27 04:29:37;;;;;;;6.70;6.10;;;16.50;99.90;;;;;;6086766;23;20580;-76
2021/09/27 04:32:14;;;;;;;6.82;6.13;;;16.50;99.90;;;;;;6086970;23;20218;-78
2021/09/27 04:35:00;;;;;;;6.57;6.07;;;16.60;99.90;;;;;;6085579;23;20201;-77
2021/09/27 04:37:29;;;;;;;6.85;6.25;;;16.60;99.90;;;;;;6087663;23;20201;-77
2021/09/27 04:39:58;;;;;;;7.60;6.97;;;16.60;99.90;;;;;;6086013;23;20631;-77
2021/09/27 04:43:09;;;;;;;7.57;6.68;;;16.60;99.90;;;;;;6088546;23;20264;-76
2021/09/27 04:45:51;;;;;;;7.72;7.03;;;16.60;99.90;;;;;;5998040;23;20207;-77
2021/09/27 04:48:29;;;;;;;7.13;6.40;;;16.60;99.90;;;;;;6084666;23;20228;-78
2021/09/27 04:51:06;;;;;;;6.65;6.13;;;16.60;99.90;;;;;;6087494;23;20197;-76
2021/09/27 04:53:49;;;;;;;6.38;5.88;;;16.60;99.90;;;;;;6088650;23;20212;-78
2021/09/27 04:56:32;;;;;;;6.10;5.60;;;16.60;99.90;;;;;;6088901;23;20193;-77
2021/09/27 04:59:11;;;;;;;7.35;6.75;;;16.60;99.90;;;;;;6089234;23;20256;-78
2021/09/27 05:02:02;;;;;;;6.68;6.15;;;16.60;99.90;;;;;;6088310;23;20201;-80
2021/09/27 05:04:47;;;;;;;6.38;5.88;;;16.60;99.90;;;;;;6092782;23;20646;-77
2021/09/27 05:07:34;;;;;;;6.82;6.20;;;16.60;99.90;;;;;;6087921;23;20253;-77
2021/09/27 05:10:13;;;;;;;6.82;6.30;;;16.60;99.90;;;;;;6089845;23;20201;-77
2021/09/27 05:13:04;;;;;;;6.47;5.97;;;16.60;99.90;;;;;;6089964;23;20205;-79
2021/09/27 05:15:58;;;;;;;7.00;6.40;;;16.60;99.90;;;;;;6089158;23;20198;-76
2021/09/27 05:19:01;;;;;;;6.68;6.07;;;16.60;99.90;;;;;;6088129;23;20209;-78
2021/09/27 05:21:44;;;;;;;5.65;5.25;;;16.60;99.90;;;;;;6086212;23;20212;-78
2021/09/27 05:24:39;;;;;;;7.45;6.75;;;16.60;99.90;;;;;;6089306;23;20657;-76
2021/09/27 05:27:32;;;;;;;8.40;7.47;;;16.60;99.90;;;;;;6084645;23;20201;-78
2021/09/27 05:30:09;;;;;;;8.52;7.75;;;16.60;99.90;;;;;;6087018;23;20264;-76
2021/09/27 05:32:48;;;;;;;7.88;7.18;;;16.60;99.90;;;;;;6087206;23;20209;-77
2021/09/27 05:35:32;;;;;;;8.10;7.40;;;16.60;99.90;;;;;;6087269;23;20205;-76
2021/09/27 05:38:05;;;;;;;6.80;6.20;;;16.60;99.90;;;;;;6088366;23;20209;-77
2021/09/27 05:40:44;;;;;;;7.10;6.50;;;16.60;99.90;;;;;;6085886;23;20228;-77
2021/09/27 05:43:33;;;;;;;7.82;7.13;;;16.60;99.90;;;;;;6087817;23;20276;-77
2021/09/27 05:46:15;;;;;;;8.50;7.72;;;16.60;99.90;;;;;;6087667;23;20565;-76
2021/09/27 05:48:49;;;;;;;7.10;6.40;;;16.60;99.90;;;;;;6087716;23;20208;-79
2021/09/27 05:51:25;;;;;;;7.45;6.85;;;16.60;99.90;;;;;;6087317;23;20678;-79
2021/09/27 05:53:58;;;;;;;5.85;5.45;;;16.60;99.90;;;;;;6088309;23;20252;-78
2021/09/27 05:56:33;;;;;;;6.15;5.55;;;16.60;99.90;;;;;;6091568;23;20643;-78
2021/09/27 05:59:06;;;;;;;6.22;5.72;;;16.60;99.90;;;;;;6090565;23;20201;-77
2021/09/27 06:01:49;;;;;;;5.28;4.80;;;16.60;99.90;;;;;;6088255;23;20267;-77
2021/09/27 06:04:26;;;;;;;6.00;5.50;;;16.60;99.90;;;;;;6088952;23;20600;-78
2021/09/27 06:07:02;;;;;;;5.63;5.13;;;16.60;99.90;;;;;;6087720;23;20280;-77
2021/09/27 06:09:39;;;;;;;6.75;6.10;;;16.70;99.90;;;;;;6089152;23;20239;-78
2021/09/27 06:12:19;;;;;;;6.57;5.97;;;16.70;99.90;;;;;;6085995;23;20208;-76
2021/09/27 06:14:47;;;;;;;7.32;6.72;;;16.70;99.90;;;;;;6086067;23;20201;-77
2021/09/27 06:17:35;;;;;;;7.20;6.60;;;16.70;99.90;;;;;;6086746;23;20197;-79
2021/09/27 06:20:08;;;;;;;6.45;5.95;;;16.70;99.90;;;;;;6085549;23;20201;-77
2021/09/27 06:23:14;;;;;;;6.53;5.88;;;16.70;99.90;;;;;;6085519;23;20217;-76
2021/09/27 06:25:53;;;;;;;7.05;6.55;;;16.70;99.90;;;;;;6041436;23;20201;-78
2021/09/27 06:28:28;;;;;;;6.30;5.80;;;16.70;99.90;;;;;;6088074;23;20248;-76
2021/09/27 06:31:01;;;;;;;6.45;5.93;;;16.70;99.90;;;;;;6085774;23;20197;-77
2021/09/27 06:33:35;;;;;;;6.38;5.88;;;16.80;99.90;;;;;;6088815;23;20197;-77
2021/09/27 06:36:09;;;;;;;5.90;5.50;;;16.80;99.90;;;;;;6087907;23;20865;-77
2021/09/27 06:38:38;;;;;;;7.53;6.82;;;16.80;99.90;;;;;;6088537;23;20213;-78
2021/09/27 06:41:07;;;;;;;7.95;7.25;;;16.90;99.90;;;;;;6088568;23;20197;-78
2021/09/27 06:43:35;;;;;;;10.50;9.57;;;16.90;99.90;;;;;;6089158;23;20209;-77
2021/09/27 06:46:02;;;;;;;11.60;10.60;;;16.90;99.90;;;;;;6087648;23;20261;-79
2021/09/27 06:48:31;;;;;;;10.07;9.25;;;16.90;99.90;;;;;;6092686;23;20201;-78
2021/09/27 06:50:58;;;;;;;10.35;9.30;;;16.90;99.90;;;;;;6089512;23;20201;-79
2021/09/27 06:53:28;;;;;;;9.55;8.65;;;16.90;99.90;;;;;;6090139;23;20276;-78
2021/09/27 06:55:56;;;;;;;9.35;8.45;;;16.90;99.90;;;;;;6089206;23;20204;-79
2021/09/27 06:58:23;;;;;;;8.00;7.40;;;16.90;99.90;;;;;;6086665;23;20237;-77
2021/09/27 07:00:51;;;;;;;7.70;7.00;;;16.90;99.90;;;;;;6085534;23;20216;-78
2021/09/27 07:03:18;;;;;;;8.13;7.50;;;16.90;99.90;;;;;;6081584;23;20213;-77
2021/09/27 07:05:46;;;;;;;7.13;6.53;;;17.00;99.90;;;;;;6084796;23;20269;-77
2021/09/27 07:08:13;;;;;;;7.22;6.63;;;17.10;99.90;;;;;;6086259;23;20666;-76
2021/09/27 07:10:40;;;;;;;8.73;7.93;;;17.20;99.90;;;;;;6086101;23;20223;-76
2021/09/27 07:13:08;;;;;;;9.32;8.43;;;17.30;99.90;;;;;;6086638;23;20217;-77
2021/09/27 07:15:35;;;;;;;9.82;8.95;;;17.40;99.90;;;;;;6087324;23;20264;-77
2021/09/27 07:18:02;;;;;;;10.07;9.13;;;17.70;99.90;;;;;;6086106;23;20272;-78
2021/09/27 07:20:29;;;;;;;10.88;9.88;;;18.20;99.90;;;;;;6088434;23;20209;-77
2021/09/27 07:22:58;;;;;;;14.55;13.15;;;18.90;99.90;;;;;;6088104;23;20213;-76
2021/09/27 07:25:27;;;;;;;16.77;15.18;;;19.50;99.90;;;;;;6088401;23;20205;-75
2021/09/27 07:27:55;;;;;;;18.80;16.90;;;20.00;99.90;;;;;;6088646;23;20589;-76
2021/09/27 07:30:23;;;;;;;18.45;16.48;;;20.40;99.90;;;;;;6089073;23;20264;-77
2021/09/27 07:32:52;;;;;;;17.25;15.65;;;20.90;99.90;;;;;;6085594;23;20209;-77
2021/09/27 07:35:24;;;;;;;17.02;15.52;;;21.10;99.90;;;;;;6087994;23;20213;-77
2021/09/27 07:37:51;;;;;;;15.93;14.43;;;21.30;99.90;;;;;;6087293;23;20557;-76
2021/09/27 07:40:26;;;;;;;16.55;15.07;;;21.30;99.90;;;;;;6088072;23;20210;-77
2021/09/27 07:42:53;;;;;;;14.60;13.18;;;21.20;99.90;;;;;;6087935;23;20284;-77
2021/09/27 07:45:22;;;;;;;14.68;13.43;;;20.90;99.90;;;;;;6089403;23;20227;-76
2021/09/27 07:47:49;;;;;;;11.48;10.48;;;20.80;99.90;;;;;;6087855;23;20205;-76
2021/09/27 07:50:17;;;;;;;11.10;10.10;;;21.00;99.90;;;;;;6085451;23;20266;-77
2021/09/27 07:52:44;;;;;;;10.40;9.50;;;21.20;99.90;;;;;;6089121;23;20209;-76
2021/09/27 07:55:13;;;;;;;11.63;10.52;;;21.30;99.90;;;;;;6089399;23;20201;-77
2021/09/27 07:57:41;;;;;;;10.57;9.48;;;21.60;99.90;;;;;;6089654;23;20205;-77
2021/09/27 08:00:11;;;;;;;8.68;7.97;;;22.00;99.90;;;;;;6088577;23;20209;-77
2021/09/27 08:02:38;;;;;;;9.57;8.77;;;22.30;99.90;;;;;;6088207;23;20210;-77
2021/09/27 08:05:07;;;;;;;9.68;8.88;;;22.50;99.90;;;;;;6087970;23;20228;-77
2021/09/27 08:07:34;;;;;;;10.05;9.05;;;22.70;99.90;;;;;;6087188;23;20263;-77
2021/09/27 08:10:02;;;;;;;10.07;9.18;;;22.60;99.90;;;;;;6087387;23;20213;-76
2021/09/27 08:12:30;;;;;;;8.75;8.02;;;22.40;99.90;;;;;;6088525;23;20201;-77
2021/09/27 08:14:58;;;;;;;10.13;9.27;;;22.00;99.90;;;;;;6087432;23;20222;-77
2021/09/27 08:17:25;;;;;;;8.15;7.45;;;21.90;99.90;;;;;;6084689;23;20598;-77
2021/09/27 08:19:52;;;;;;;7.82;7.15;;;22.20;99.90;;;;;;6084197;23;20209;-78
2021/09/27 08:22:19;;;;;;;8.07;7.40;;;22.90;99.90;;;;;;6086833;23;20208;-77
2021/09/27 08:24:46;;;;;;;8.65;7.75;;;23.30;99.90;;;;;;6086506;23;20205;-78
2021/09/27 08:27:13;;;;;;;8.27;7.57;;;23.40;99.90;;;;;;6086880;23;20201;-77
2021/09/27 08:29:40;;;;;;;8.40;7.60;;;23.50;99.90;;;;;;6088212;23;20866;-77
2021/09/27 08:32:09;;;;;;;7.90;7.20;;;23.60;99.90;;;;;;6087530;23;20206;-75
2021/09/27 08:34:36;;;;;;;7.47;6.88;;;23.70;99.90;;;;;;6088690;23;20218;-76
2021/09/27 08:37:03;;;;;;;8.55;7.85;;;24.00;99.90;;;;;;6086749;23;20206;-77
2021/09/27 08:39:30;;;;;;;8.23;7.53;;;24.00;99.90;;;;;;6088680;23;20213;-76
2021/09/27 08:42:02;;;;;;;8.90;8.05;;;23.90;99.90;;;;;;6087793;23;20201;-77
2021/09/27 08:44:48;;;;;;;8.18;7.47;;;23.90;99.90;;;;;;6088102;23;20213;-76
2021/09/27 08:47:25;;;;;;;7.85;7.15;;;24.10;99.90;;;;;;6086056;23;20251;-77
2021/09/27 08:49:56;;;;;;;8.43;7.72;;;24.40;99.90;;;;;;6087613;23;20228;-75
2021/09/27 08:52:25;;;;;;;8.48;7.70;;;24.50;99.90;;;;;;6087667;23;20658;-76
2021/09/27 08:54:53;;;;;;;8.43;7.50;;;24.50;99.90;;;;;;6086808;23;20212;-76
2021/09/27 08:57:43;;;;;;;7.93;7.32;;;24.40;99.90;;;;;;6087581;23;21297;-76
2021/09/27 09:00:27;;;;;;;7.45;6.82;;;24.40;99.90;;;;;;6086694;23;20208;-77
2021/09/27 09:03:01;;;;;;;7.10;6.50;;;24.40;99.90;;;;;;6087296;23;20284;-76
2021/09/27 09:05:33;;;;;;;8.98;8.23;;;24.80;99.90;;;;;;6087986;23;20233;-76
2021/09/27 09:08:06;;;;;;;8.00;7.28;;;25.00;99.90;;;;;;6089551;23;20202;-76
2021/09/27 09:10:43;;;;;;;8.40;7.78;;;25.20;99.90;;;;;;6083556;23;20268;-77
2021/09/27 09:13:14;;;;;;;7.55;6.90;;;25.00;99.90;;;;;;6085101;23;20215;-76
2021/09/27 09:15:44;;;;;;;8.15;7.20;;;24.80;99.90;;;;;;6083789;23;20209;-77
2021/09/27 09:18:17;;;;;;;7.95;7.25;;;24.70;99.90;;;;;;6082310;23;20209;-76
2021/09/27 09:20:48;;;;;;;7.95;7.25;;;24.60;99.90;;;;;;6084840;23;20209;-76
2021/09/27 09:23:21;;;;;;;7.10;6.60;;;24.60;99.90;;;;;;6085657;23;20694;-76
2021/09/27 09:25:48;;;;;;;7.70;7.05;;;24.80;99.90;;;;;;6086195;23;20212;-77
2021/09/27 09:28:16;;;;;;;8.25;7.50;;;25.00;99.90;;;;;;6084660;23;20703;-77
2021/09/27 09:30:47;;;;;;;7.53;6.80;;;25.00;99.90;;;;;;6085009;23;20678;-76
2021/09/27 09:33:37;;;;;;;7.47;6.88;;;25.20;99.90;;;;;;6083938;23;20698;-77
2021/09/27 09:36:04;;;;;;;8.95;7.47;;;25.00;99.90;;;;;;6087389;23;20658;-76
2021/09/27 09:38:34;;;;;;;7.13;6.43;;;25.00;99.90;;;;;;6088588;23;20264;-76
2021/09/27 09:41:03;;;;;;;7.50;6.88;;;25.00;99.90;;;;;;6086501;23;20351;-77
2021/09/27 09:43:32;;;;;;;7.18;6.43;;;25.20;99.90;;;;;;6085252;23;20208;-76
2021/09/27 09:46:07;;;;;;;7.57;6.97;;;25.20;99.90;;;;;;6087736;23;20521;-75
2021/09/27 09:48:35;;;;;;;6.90;6.30;;;25.20;99.90;;;;;;6086880;23;20668;-75
2021/09/27 09:51:23;;;;;;;8.07;7.38;;;25.30;99.90;;;;;;6087099;23;20205;-75
2021/09/27 09:54:12;;;;;;;7.57;6.57;;;25.30;99.90;;;;;;6087827;23;20209;-75
2021/09/27 09:56:42;;;;;;;7.10;6.40;;;25.10;99.90;;;;;;6085952;23;20201;-76
2021/09/27 09:59:22;;;;;;;6.82;6.22;;;24.90;99.90;;;;;;6086844;23;20210;-76
2021/09/27 10:01:53;;;;;;;6.72;6.13;;;24.80;99.90;;;;;;6087522;23;20236;-77
2021/09/27 10:04:23;;;;;;;6.60;5.90;;;24.90;99.90;;;;;;6087900;23;20232;-77
2021/09/27 10:07:00;;;;;;;7.07;6.43;;;24.80;99.90;;;;;;6086129;23;20596;-76
2021/09/27 10:09:31;;;;;;;7.30;6.60;;;25.10;99.90;;;;;;6083509;23;20292;-75
2021/09/27 10:12:00;;;;;;;6.82;6.22;;;25.50;99.90;;;;;;6082239;23;21063;-75
2021/09/27 10:14:36;;;;;;;7.68;6.97;;;25.70;99.90;;;;;;6086291;23;20206;-75
2021/09/27 10:17:12;;;;;;;6.30;5.80;;;25.60;99.90;;;;;;6085159;23;20252;-75
2021/09/27 10:19:48;;;;;;;7.13;6.53;;;25.50;99.90;;;;;;6087815;23;20209;-75
2021/09/27 10:22:23;;;;;;;7.38;6.68;;;25.50;99.90;;;;;;6086180;23;20197;-75
2021/09/27 10:24:53;;;;;;;7.00;6.40;;;25.60;99.90;;;;;;6087462;23;20212;-75
2021/09/27 10:27:26;;;;;;;8.05;7.25;;;25.40;99.90;;;;;;6087115;23;20758;-74
2021/09/27 10:29:55;;;;;;;6.95;6.35;;;25.10;99.90;;;;;;6087626;23;20225;-75
2021/09/27 10:32:33;;;;;;;6.55;6.03;;;25.20;99.90;;;;;;6085578;23;20205;-76
2021/09/27 10:35:10;;;;;;;6.63;6.03;;;25.60;99.90;;;;;;6086723;23;20585;-75
2021/09/27 10:37:41;;;;;;;7.65;6.85;;;25.70;99.90;;;;;;6086325;23;20850;-75
2021/09/27 10:40:16;;;;;;;6.45;5.95;;;25.60;99.90;;;;;;6087293;23;20741;-75
2021/09/27 10:42:48;;;;;;;6.35;5.85;;;25.30;99.90;;;;;;6085069;23;20212;-75
2021/09/27 10:45:18;;;;;;;6.18;5.68;;;25.20;99.90;;;;;;6085015;23;20209;-75
2021/09/27 10:47:50;;;;;;;6.85;6.25;;;25.50;99.90;;;;;;6086569;23;20215;-75
2021/09/27 10:50:24;;;;;;;6.68;6.18;;;25.50;99.90;;;;;;6086737;23;20201;-76
2021/09/27 10:53:04;;;;;;;7.03;6.43;;;25.30;99.90;;;;;;6086925;23;20224;-74
2021/09/27 10:55:47;;;;;;;7.80;5.90;;;25.20;99.90;;;;;;6085211;23;21004;-74
2021/09/27 10:58:32;;;;;;;6.50;5.90;;;25.20;99.90;;;;;;6085562;23;20248;-75
2021/09/27 11:00:59;;;;;;;7.15;6.55;;;25.20;99.90;;;;;;6087334;23;20260;-75
2021/09/27 11:03:31;;;;;;;6.47;5.88;;;25.40;99.90;;;;;;6073782;23;20205;-75
2021/09/27 11:06:01;;;;;;;6.57;5.97;;;25.50;99.90;;;;;;6086189;23;20201;-74
2021/09/27 11:08:53;;;;;;;6.03;5.53;;;25.60;99.90;;;;;;6087563;23;20205;-75
2021/09/27 11:11:37;;;;;;;6.22;5.63;;;25.70;99.90;;;;;;6086734;23;20610;-75
2021/09/27 11:14:20;;;;;;;6.80;6.10;;;26.10;99.90;;;;;;6086397;23;20256;-75
2021/09/27 11:16:54;;;;;;;6.95;6.28;;;26.20;99.90;;;;;;6086808;23;20272;-76
2021/09/27 11:19:35;;;;;;;6.35;5.75;;;25.90;99.90;;;;;;6086237;23;20217;-74
2021/09/27 11:22:34;;;;;;;6.18;5.68;;;25.80;99.90;;;;;;6086044;23;20208;-75
2021/09/27 11:25:11;;;;;;;6.40;5.85;;;25.80;99.90;;;;;;6084672;23;20597;-75
2021/09/27 11:27:39;;;;;;;5.07;4.78;;;25.90;99.90;;;;;;6087340;23;20269;-76
2021/09/27 11:30:40;;;;;;;7.00;6.40;;;26.00;99.90;;;;;;6086334;23;20311;-75
2021/09/27 11:33:39;;;;;;;6.60;6.00;;;26.20;99.90;;;;;;6085800;23;20722;-74
2021/09/27 11:36:23;;;;;;;8.38;6.20;;;26.10;99.90;;;;;;6085668;23;20198;-75
2021/09/27 11:39:00;;;;;;;6.38;5.78;;;26.10;99.90;;;;;;6085677;23;20212;-75
2021/09/27 11:41:36;;;;;;;6.40;5.90;;;26.10;99.90;;;;;;6085089;23;20201;-75
2021/09/27 11:44:24;;;;;;;5.88;5.40;;;26.00;99.90;;;;;;6084413;23;20215;-74
2021/09/27 11:47:02;;;;;;;6.75;6.15;;;26.20;99.90;;;;;;6085692;23;20305;-76
2021/09/27 11:49:48;;;;;;;6.47;5.88;;;26.20;99.90;;;;;;6086487;23;20665;-76
2021/09/27 11:52:21;;;;;;;6.93;6.32;;;26.00;99.90;;;;;;6086520;23;20253;-75
2021/09/27 11:54:53;;;;;;;6.40;5.95;;;25.90;99.90;;;;;;6085798;23;20268;-76
2021/09/27 11:57:28;;;;;;;7.20;6.50;;;25.60;99.90;;;;;;6087083;23;20260;-74
2021/09/27 12:00:07;;;;;;;6.25;5.75;;;25.50;99.90;;;;;;6084482;23;20205;-75
2021/09/27 12:02:57;;;;;;;6.45;5.85;;;25.40;99.90;;;;;;6084821;23;20213;-76
2021/09/27 12:05:32;;;;;;;6.15;5.65;;;25.70;99.90;;;;;;6086983;23;20208;-75
2021/09/27 12:08:04;;;;;;;6.85;5.95;;;25.70;99.90;;;;;;6087359;23;20263;-76
2021/09/27 12:10:34;;;;;;;5.60;5.20;;;25.90;99.90;;;;;;6085269;23;20197;-75
2021/09/27 12:13:11;;;;;;;6.43;5.93;;;26.10;99.90;;;;;;6087661;23;20217;-75
2021/09/27 12:15:41;;;;;;;7.10;6.40;;;26.30;99.90;;;;;;6087316;23;20690;-76
2021/09/27 12:18:28;;;;;;;7.15;6.50;;;26.20;99.90;;;;;;6088115;23;20205;-75
2021/09/27 12:20:55;;;;;;;6.30;5.80;;;26.40;99.90;;;;;;6088050;23;20209;-76
2021/09/27 12:23:22;;;;;;;6.70;6.10;;;26.40;99.90;;;;;;6088665;23;20280;-75
2021/09/27 12:25:53;;;;;;;6.22;5.63;;;26.10;99.90;;;;;;6088287;23;20689;-76
2021/09/27 12:28:32;;;;;;;6.13;5.63;;;25.90;99.90;;;;;;6088547;23;20280;-75
2021/09/27 12:31:03;;;;;;;6.47;5.75;;;26.10;99.90;;;;;;6089060;23;20201;-76
2021/09/27 12:33:30;;;;;;;5.88;5.43;;;26.50;99.90;;;;;;6087170;23;20268;-75
2021/09/27 12:36:05;;;;;;;5.82;5.40;;;26.40;99.90;;;;;;6087777;23;20201;-76
2021/09/27 12:38:33;;;;;;;6.10;5.60;;;26.10;99.90;;;;;;6087705;23;20263;-75
2021/09/27 12:41:01;;;;;;;6.15;5.60;;;25.80;99.90;;;;;;6087970;23;20261;-76
2021/09/27 12:43:32;;;;;;;6.30;5.80;;;25.80;99.90;;;;;;6088098;23;20256;-74
2021/09/27 12:46:02;;;;;;;6.30;5.80;;;25.90;99.90;;;;;;6087502;23;20264;-76
2021/09/27 12:48:33;;;;;;;7.20;6.60;;;25.60;99.90;;;;;;6089227;23;20221;-76
2021/09/27 12:51:03;;;;;;;7.15;6.35;;;25.20;99.90;;;;;;6088022;23;20255;-76
2021/09/27 12:53:39;;;;;;;6.50;6.00;;;24.80;99.90;;;;;;6087672;23;20210;-75
2021/09/27 12:56:07;;;;;;;6.88;6.28;;;24.60;99.90;;;;;;6085774;23;20197;-75
2021/09/27 12:58:39;;;;;;;6.50;6.00;;;24.50;99.90;;;;;;6087664;23;20213;-75
2021/09/27 13:01:10;;;;;;;6.43;5.93;;;24.30;99.90;;;;;;6087495;23;20206;-75
2021/09/27 13:03:43;;;;;;;6.60;6.10;;;24.40;99.90;;;;;;6066827;23;20210;-74
2021/09/27 13:06:15;;;;;;;6.45;5.95;;;24.40;99.90;;;;;;6085480;23;20197;-73
2021/09/27 13:08:48;;;;;;;6.22;5.72;;;24.50;99.90;;;;;;6085569;23;20210;-75
2021/09/27 13:11:29;;;;;;;7.22;6.53;;;24.60;99.90;;;;;;6087540;23;20197;-75
2021/09/27 13:14:01;;;;;;;6.50;6.00;;;24.70;99.90;;;;;;6050509;23;20205;-74
2021/09/27 13:16:33;;;;;;;6.38;5.88;;;24.80;99.90;;;;;;6088339;23;20202;-75
2021/09/27 13:19:01;;;;;;;6.82;6.22;;;25.10;99.90;;;;;;6086829;23;20646;-75
2021/09/27 13:21:31;;;;;;;5.97;5.45;;;25.40;99.90;;;;;;6087780;23;20711;-75
2021/09/27 13:24:02;;;;;;;6.53;5.97;;;25.50;99.90;;;;;;6088249;23;20940;-74
2021/09/27 13:26:37;;;;;;;6.22;5.72;;;25.70;99.90;;;;;;6088889;23;20193;-74